Aviation Digital Data Service (ADDS)

Output produced by TAFs form (1905 UTC 23 April 2018)
found at http://www.aviationweather.gov/adds/tafs/
 
KFLO 231853Z 10019G30KT 3SM RA BR SCT018 BKN026 OVC075 18/16 A3011 RMK AO2 PK WND 10030/1846 SLP194 P0008 T01780161
KFLO 231735Z 2318/2418 10015G25KT P6SM -SHRA OVC015 
     FM232000 09016G22KT 3SM RA BR OVC007 
     FM241000 15010G20KT P6SM VCSH BKN010